createdAt,value
2019-01-13T00:00:11.669Z,21.31
2019-01-13T00:02:32.659Z,21.29
2019-01-13T00:04:58.692Z,21.27
2019-01-13T00:07:24.689Z,21.29
2019-01-13T00:09:50.681Z,21.29
2019-01-13T00:12:16.738Z,21.28
2019-01-13T00:14:42.737Z,21.30
2019-01-13T00:17:08.737Z,21.29
2019-01-13T00:19:34.775Z,21.29
2019-01-13T00:22:00.757Z,21.30
2019-01-13T00:24:26.740Z,21.31
2019-01-13T00:26:52.773Z,21.29
2019-01-13T00:29:18.759Z,21.29
2019-01-13T00:31:44.753Z,21.31
2019-01-13T00:34:10.781Z,21.31
2019-01-13T00:36:36.783Z,21.29
2019-01-13T00:39:02.779Z,21.27
2019-01-13T00:41:28.817Z,21.25
2019-01-13T00:43:54.803Z,21.24
2019-01-13T00:46:20.814Z,21.23
2019-01-13T00:48:46.857Z,21.22
2019-01-13T00:51:12.861Z,21.23
2019-01-13T00:53:38.859Z,21.21
2019-01-13T00:56:04.898Z,21.20
2019-01-13T00:58:30.880Z,21.20
2019-01-13T01:00:56.858Z,21.21
2019-01-13T01:03:22.884Z,21.18
2019-01-13T01:05:48.878Z,21.18
2019-01-13T01:08:14.864Z,21.18
2019-01-13T01:10:40.909Z,21.17
2019-01-13T01:13:06.910Z,21.17
2019-01-13T01:15:32.905Z,21.17
2019-01-13T01:17:58.934Z,21.17
2019-01-13T01:20:24.911Z,21.17
2019-01-13T01:22:50.894Z,21.16
2019-01-13T01:25:16.929Z,21.16
2019-01-13T01:27:42.915Z,21.14
2019-01-13T01:30:08.906Z,21.13
2019-01-13T01:32:34.933Z,21.13
2019-01-13T01:35:00.929Z,21.15
2019-01-13T01:37:26.934Z,21.14
2019-01-13T01:39:53.026Z,21.12
2019-01-13T01:42:18.952Z,21.12
2019-01-13T01:44:44.965Z,21.12
2019-01-13T01:47:10.996Z,21.12
2019-01-13T01:49:37.006Z,21.13
2019-01-13T01:52:03.025Z,21.12
2019-01-13T01:54:29.069Z,21.13
2019-01-13T01:56:55.058Z,21.11
2019-01-13T01:59:21.037Z,21.12
2019-01-13T02:01:47.062Z,21.11
2019-01-13T02:04:13.087Z,21.11
2019-01-13T02:06:39.032Z,21.11
2019-01-13T02:09:05.075Z,21.11
2019-01-13T02:11:31.059Z,21.12
2019-01-13T02:13:57.058Z,21.11
2019-01-13T02:16:23.098Z,21.11
2019-01-13T02:18:49.130Z,21.10
2019-01-13T02:21:15.113Z,21.10
2019-01-13T02:23:41.168Z,21.10
2019-01-13T02:26:07.189Z,21.10
2019-01-13T02:28:33.197Z,21.09
2019-01-13T02:30:59.217Z,21.10
2019-01-13T02:33:25.203Z,21.10
2019-01-13T02:35:51.199Z,21.08
2019-01-13T02:38:17.249Z,21.10
2019-01-13T02:40:43.257Z,21.09
2019-01-13T02:43:09.252Z,21.09
2019-01-13T02:45:35.308Z,21.10
2019-01-13T02:48:01.297Z,21.08
2019-01-13T02:50:27.281Z,21.09
2019-01-13T02:52:53.329Z,21.08
2019-01-13T02:55:19.334Z,21.09
2019-01-13T02:57:45.319Z,21.09
2019-01-13T03:00:11.371Z,21.10
2019-01-13T03:02:37.379Z,21.10
2019-01-13T03:05:03.363Z,21.08
2019-01-13T03:07:29.436Z,21.08
2019-01-13T03:09:55.406Z,21.09
2019-01-13T03:12:21.405Z,21.09
2019-01-13T03:14:47.446Z,21.09
2019-01-13T03:17:13.466Z,21.09
2019-01-13T03:19:39.498Z,21.08
2019-01-13T03:22:05.512Z,21.07
2019-01-13T03:24:31.508Z,21.09
2019-01-13T03:26:57.499Z,21.07
2019-01-13T03:29:23.537Z,21.07
2019-01-13T03:31:49.540Z,21.07
2019-01-13T03:34:15.544Z,21.09
2019-01-13T03:36:41.578Z,21.08
2019-01-13T03:39:07.558Z,21.08
2019-01-13T03:41:33.563Z,21.06
2019-01-13T03:43:59.601Z,21.08
2019-01-13T03:46:25.606Z,21.07
2019-01-13T03:48:51.616Z,21.07
2019-01-13T03:51:17.646Z,21.07
2019-01-13T03:53:43.631Z,21.07
2019-01-13T03:56:09.629Z,21.05
2019-01-13T03:58:35.688Z,21.07
2019-01-13T04:01:01.672Z,21.08
2019-01-13T04:03:27.662Z,21.07
2019-01-13T04:05:53.696Z,21.07
2019-01-13T04:08:19.686Z,21.07
2019-01-13T04:10:45.670Z,21.07
2019-01-13T04:13:11.703Z,21.07
2019-01-13T04:15:37.702Z,21.06
2019-01-13T04:18:03.694Z,21.07
2019-01-13T04:20:29.723Z,21.08
2019-01-13T04:22:55.715Z,21.08
2019-01-13T04:25:21.712Z,21.07
2019-01-13T04:27:47.768Z,21.07
2019-01-13T04:30:13.762Z,21.07
2019-01-13T04:32:39.755Z,21.07
2019-01-13T04:35:05.805Z,21.06
2019-01-13T04:37:31.788Z,21.07
2019-01-13T04:39:57.778Z,21.07
2019-01-13T04:42:23.833Z,21.06
2019-01-13T04:44:49.816Z,21.05
2019-01-13T04:47:15.810Z,21.07
2019-01-13T04:49:41.873Z,21.07
2019-01-13T04:52:07.850Z,21.06
2019-01-13T04:54:33.843Z,21.06
2019-01-13T04:56:59.875Z,21.05
2019-01-13T04:59:25.872Z,21.06
2019-01-13T05:01:51.902Z,21.05
2019-01-13T05:04:17.943Z,21.06
2019-01-13T05:06:43.945Z,21.06
2019-01-13T05:09:09.940Z,21.07
2019-01-13T05:11:35.975Z,21.06
2019-01-13T05:14:01.987Z,21.05
2019-01-13T05:16:27.962Z,21.07
2019-01-13T05:18:54.004Z,21.06
2019-01-13T05:21:20.005Z,21.07
2019-01-13T05:23:45.999Z,21.06
2019-01-13T05:26:12.044Z,21.06
2019-01-13T05:28:38.040Z,21.06
2019-01-13T05:31:04.059Z,21.06
2019-01-13T05:33:30.094Z,21.05
2019-01-13T05:35:56.094Z,21.04
2019-01-13T05:38:22.070Z,21.04
2019-01-13T05:40:48.102Z,21.05
2019-01-13T05:43:14.086Z,21.08
2019-01-13T05:45:40.073Z,21.06
2019-01-13T05:48:06.113Z,21.07
2019-01-13T05:50:32.101Z,21.07
2019-01-13T05:52:58.108Z,21.07
2019-01-13T05:55:24.156Z,21.05
2019-01-13T05:57:50.144Z,21.06
2019-01-13T06:00:16.126Z,21.06
2019-01-13T06:02:42.172Z,21.06
2019-01-13T06:05:08.168Z,21.06
2019-01-13T06:07:34.158Z,21.06
2019-01-13T06:10:00.205Z,21.08
2019-01-13T06:12:26.194Z,21.05
2019-01-13T06:14:52.183Z,21.06
2019-01-13T06:17:18.293Z,21.05
2019-01-13T06:19:44.271Z,21.06
2019-01-13T06:22:10.255Z,21.05
2019-01-13T06:24:36.290Z,21.06
2019-01-13T06:27:02.283Z,21.06
2019-01-13T06:29:28.278Z,21.04
2019-01-13T06:31:56.503Z,21.05
2019-01-13T06:34:20.321Z,21.05
2019-01-13T06:36:46.309Z,21.05
2019-01-13T06:39:12.354Z,21.06
2019-01-13T06:41:38.428Z,21.04
2019-01-13T06:44:04.417Z,21.04
2019-01-13T06:46:30.458Z,21.04
2019-01-13T06:48:56.461Z,21.03
2019-01-13T06:51:22.450Z,21.03
2019-01-13T06:53:48.485Z,21.03
2019-01-13T06:56:14.487Z,21.03
2019-01-13T06:58:40.486Z,21.02
2019-01-13T07:01:06.561Z,21.02
2019-01-13T07:03:32.563Z,21.03
2019-01-13T07:05:58.553Z,21.03
2019-01-13T07:08:24.594Z,21.02
2019-01-13T07:10:54.678Z,21.04
2019-01-13T07:13:20.657Z,21.04
2019-01-13T07:15:46.687Z,21.04
2019-01-13T07:18:12.815Z,21.03
2019-01-13T07:20:38.945Z,21.02
2019-01-13T07:23:04.975Z,21.02
2019-01-13T07:25:30.981Z,21.01
2019-01-13T07:27:57.622Z,21.01
2019-01-13T07:30:23.670Z,21.01
2019-01-13T07:32:49.681Z,21.00
2019-01-13T07:35:15.670Z,21.00
2019-01-13T07:37:41.697Z,21.00
2019-01-13T07:40:07.703Z,20.99
2019-01-13T07:42:33.786Z,20.98
2019-01-13T07:44:59.828Z,20.97
2019-01-13T07:47:25.829Z,20.96
2019-01-13T07:49:51.835Z,20.96
2019-01-13T07:52:17.881Z,20.96
2019-01-13T07:54:43.876Z,20.96
2019-01-13T07:57:09.881Z,20.96
2019-01-13T07:59:35.911Z,20.96
2019-01-13T08:02:01.931Z,20.97
2019-01-13T08:04:27.988Z,20.96
2019-01-13T08:06:54.047Z,20.95
2019-01-13T08:09:20.680Z,20.95
2019-01-13T08:11:46.673Z,20.96
2019-01-13T08:14:12.714Z,20.95
2019-01-13T08:16:38.701Z,20.95
2019-01-13T08:19:04.694Z,20.96
2019-01-13T08:21:30.723Z,20.96
2019-01-13T08:23:56.713Z,20.97
2019-01-13T08:26:22.700Z,20.98
2019-01-13T08:28:49.000Z,20.97
2019-01-13T08:31:15.312Z,20.98
2019-01-13T08:33:41.982Z,20.98
2019-01-13T08:36:08.725Z,20.98
2019-01-13T08:38:35.466Z,20.98
2019-01-13T08:41:02.316Z,20.99
2019-01-13T08:43:29.461Z,20.98
2019-01-13T08:45:55.463Z,20.98
2019-01-13T08:48:21.715Z,20.98
2019-01-13T08:50:47.903Z,20.99
2019-01-13T08:53:15.254Z,20.99
2019-01-13T08:55:41.251Z,21.00
2019-01-13T08:58:07.354Z,21.00
2019-01-13T09:00:33.944Z,21.00
2019-01-13T09:02:59.931Z,21.01
2019-01-13T09:05:26.377Z,21.01
2019-01-13T09:07:52.392Z,21.02
2019-01-13T09:10:18.420Z,21.01
2019-01-13T09:12:44.629Z,21.01
2019-01-13T09:15:10.638Z,21.01
2019-01-13T09:17:36.639Z,21.02
2019-01-13T09:20:02.675Z,21.01
2019-01-13T09:22:28.658Z,21.03
2019-01-13T09:24:54.661Z,21.01
2019-01-13T09:27:20.701Z,21.05
2019-01-13T09:29:46.697Z,21.05
2019-01-13T09:32:12.759Z,21.05
2019-01-13T09:34:38.803Z,21.06
2019-01-13T09:37:04.823Z,21.07
2019-01-13T09:39:30.939Z,21.09
2019-01-13T09:41:57.024Z,21.09
2019-01-13T09:44:23.019Z,21.10
2019-01-13T09:46:49.022Z,21.11
2019-01-13T09:49:15.069Z,21.14
2019-01-13T09:51:41.059Z,21.14
2019-01-13T09:54:07.068Z,21.14
2019-01-13T09:56:33.180Z,21.16
2019-01-13T09:58:59.230Z,21.17
2019-01-13T10:01:25.228Z,21.19
2019-01-13T10:03:51.285Z,21.20
2019-01-13T10:06:17.273Z,21.21
2019-01-13T10:08:43.268Z,21.22
2019-01-13T10:11:09.323Z,21.25
2019-01-13T10:13:35.342Z,21.25
2019-01-13T10:16:01.319Z,21.26
2019-01-13T10:18:27.362Z,21.26
2019-01-13T10:20:53.359Z,21.30
2019-01-13T10:23:19.441Z,21.28
2019-01-13T10:25:45.490Z,21.29
2019-01-13T10:28:11.490Z,21.30
2019-01-13T10:30:37.489Z,21.33
2019-01-13T10:33:03.558Z,21.33
2019-01-13T10:35:29.568Z,21.34
2019-01-13T10:37:55.558Z,21.34
2019-01-13T10:40:21.636Z,21.36
2019-01-13T10:42:47.657Z,21.35
2019-01-13T10:45:13.675Z,21.35
2019-01-13T10:47:40.233Z,21.35
2019-01-13T10:50:06.223Z,21.36
2019-01-13T10:52:32.298Z,21.36
2019-01-13T10:54:58.326Z,21.34
2019-01-13T10:57:24.334Z,21.32
2019-01-13T10:59:50.343Z,21.32
2019-01-13T11:02:16.492Z,21.33
2019-01-13T11:04:42.494Z,21.36
2019-01-13T11:07:08.636Z,21.36
2019-01-13T11:09:34.755Z,21.35
2019-01-13T11:12:00.789Z,21.39
2019-01-13T11:14:26.789Z,21.38
2019-01-13T11:16:52.819Z,21.38
2019-01-13T11:19:18.820Z,21.39
2019-01-13T11:21:44.833Z,21.38
2019-01-13T11:24:10.883Z,21.37
2019-01-13T11:26:37.091Z,21.39
2019-01-13T11:29:03.380Z,21.38
2019-01-13T11:31:29.529Z,21.39
2019-01-13T11:33:56.833Z,21.38
2019-01-13T11:36:22.850Z,21.35
2019-01-13T11:38:49.085Z,21.36
2019-01-13T11:41:15.095Z,21.37
2019-01-13T11:43:41.113Z,21.36
2019-01-13T11:46:07.147Z,21.35
2019-01-13T11:48:33.158Z,21.33
2019-01-13T11:50:59.155Z,21.32
2019-01-13T11:53:25.495Z,21.31
2019-01-13T11:55:51.497Z,21.33
2019-01-13T11:58:17.511Z,21.29
2019-01-13T12:00:43.665Z,21.28
2019-01-13T12:03:16.493Z,21.26
2019-01-13T12:05:36.267Z,21.25
2019-01-13T12:08:02.320Z,21.23
2019-01-13T12:10:28.330Z,21.22
2019-01-13T12:12:54.675Z,21.22
2019-01-13T12:15:20.755Z,21.21
2019-01-13T12:17:46.802Z,21.21
2019-01-13T12:20:12.825Z,21.20
2019-01-13T12:22:39.529Z,21.18
2019-01-13T12:25:08.499Z,21.18
2019-01-13T12:27:34.503Z,21.17
2019-01-13T12:30:00.773Z,21.17
2019-01-13T12:32:26.789Z,21.17
2019-01-13T12:34:52.818Z,21.17
2019-01-13T12:37:18.885Z,21.16
2019-01-13T12:39:46.178Z,21.16
2019-01-13T12:42:10.953Z,21.17
2019-01-13T12:44:37.255Z,21.16
2019-01-13T12:47:03.803Z,21.16
2019-01-13T12:49:29.820Z,21.16
2019-01-13T12:51:56.160Z,21.15
2019-01-13T12:54:22.162Z,21.15
2019-01-13T12:56:48.176Z,21.15
2019-01-13T12:59:14.209Z,21.14
2019-01-13T13:01:40.207Z,21.13
2019-01-13T13:04:06.199Z,21.14
2019-01-13T13:06:32.264Z,21.14
2019-01-13T13:08:58.268Z,21.15
2019-01-13T13:11:24.253Z,21.15
2019-01-13T13:13:50.281Z,21.13
2019-01-13T13:16:16.311Z,21.14
2019-01-13T13:18:42.306Z,21.13
2019-01-13T13:21:08.377Z,21.13
2019-01-13T13:23:34.383Z,21.13
2019-01-13T13:26:00.383Z,21.14
2019-01-13T13:28:26.446Z,21.12
2019-01-13T13:30:52.442Z,21.11
2019-01-13T13:33:18.432Z,21.12
2019-01-13T13:35:44.541Z,21.11
2019-01-13T13:38:10.600Z,21.11
2019-01-13T13:40:36.554Z,21.11
2019-01-13T13:43:02.592Z,21.09
2019-01-13T13:45:28.590Z,21.10
2019-01-13T13:47:54.580Z,21.10
2019-01-13T13:50:20.614Z,21.11
2019-01-13T13:52:46.595Z,21.10
2019-01-13T13:55:12.631Z,21.09
2019-01-13T13:57:38.665Z,21.11
2019-01-13T14:00:04.683Z,21.09
2019-01-13T14:02:30.685Z,21.09
2019-01-13T14:04:56.722Z,21.09
2019-01-13T14:07:22.795Z,21.09
2019-01-13T14:09:48.747Z,21.08
2019-01-13T14:12:14.787Z,21.08
2019-01-13T14:14:40.802Z,21.08
2019-01-13T14:17:06.780Z,21.08
2019-01-13T14:19:32.821Z,21.08
2019-01-13T14:21:58.816Z,21.07
2019-01-13T14:24:24.806Z,21.06
2019-01-13T14:26:50.856Z,21.06
2019-01-13T14:29:16.863Z,21.07
2019-01-13T14:31:42.870Z,21.05
2019-01-13T14:34:08.912Z,21.06
2019-01-13T14:36:34.900Z,21.06
2019-01-13T14:39:00.885Z,21.05
2019-01-13T14:41:26.940Z,21.05
2019-01-13T14:43:52.945Z,21.05
2019-01-13T14:46:18.934Z,21.05
2019-01-13T14:48:44.980Z,21.04
2019-01-13T14:51:11.062Z,21.04
2019-01-13T14:53:37.113Z,21.03
2019-01-13T14:56:03.221Z,21.02
2019-01-13T14:58:29.220Z,21.03
2019-01-13T15:00:55.239Z,21.03
2019-01-13T15:03:21.575Z,21.03
2019-01-13T15:05:47.571Z,21.02
2019-01-13T15:08:13.600Z,21.02
2019-01-13T15:10:39.677Z,21.02
2019-01-13T15:13:05.748Z,21.00
2019-01-13T15:15:31.764Z,21.01
2019-01-13T15:17:57.836Z,21.01
2019-01-13T15:20:24.090Z,21.02
2019-01-13T15:22:51.568Z,21.04
2019-01-13T15:25:16.141Z,21.05
2019-01-13T15:27:42.143Z,21.06
2019-01-13T15:30:08.143Z,21.07
2019-01-13T15:32:34.177Z,21.08
2019-01-13T15:35:00.236Z,21.07
2019-01-13T15:37:26.183Z,21.07
2019-01-13T15:39:52.223Z,21.08
2019-01-13T15:42:18.255Z,21.07
2019-01-13T15:44:44.255Z,21.06
2019-01-13T15:47:10.296Z,21.08
2019-01-13T15:49:36.430Z,21.07
2019-01-13T15:52:02.423Z,21.05
2019-01-13T15:54:28.479Z,21.07
2019-01-13T15:56:54.582Z,21.07
2019-01-13T15:59:20.593Z,21.08
2019-01-13T16:01:47.119Z,21.10
2019-01-13T16:04:14.660Z,21.10
2019-01-13T16:06:39.133Z,21.12
2019-01-13T16:09:05.191Z,21.14
2019-01-13T16:11:31.228Z,21.14
2019-01-13T16:13:57.649Z,21.12
2019-01-13T16:16:23.886Z,21.13
2019-01-13T16:19:03.861Z,21.13
2019-01-13T16:21:24.324Z,21.12
2019-01-13T16:23:50.895Z,21.12
2019-01-13T16:26:16.956Z,21.12
2019-01-13T16:28:43.738Z,21.12
2019-01-13T16:31:13.978Z,21.11
2019-01-13T16:33:39.976Z,21.12
2019-01-13T16:36:07.245Z,21.11
2019-01-13T16:38:33.311Z,21.10
2019-01-13T16:40:59.330Z,21.11
2019-01-13T16:43:25.378Z,21.10
2019-01-13T16:45:51.459Z,21.11
2019-01-13T16:48:17.468Z,21.11
2019-01-13T16:50:43.505Z,21.10
2019-01-13T16:53:09.569Z,21.11
2019-01-13T16:55:35.568Z,21.11
2019-01-13T16:58:01.571Z,21.13
2019-01-13T17:00:28.006Z,21.12
2019-01-13T17:02:54.001Z,21.12
2019-01-13T17:05:19.982Z,21.11
2019-01-13T17:07:46.049Z,21.11
2019-01-13T17:10:12.045Z,21.14
2019-01-13T17:12:38.043Z,21.17
2019-01-13T17:15:04.081Z,21.18
2019-01-13T17:17:30.196Z,21.21
2019-01-13T17:19:56.188Z,21.26
2019-01-13T17:22:22.225Z,21.33
2019-01-13T17:24:48.204Z,21.29
2019-01-13T17:27:14.194Z,21.26
2019-01-13T17:29:40.347Z,21.24
2019-01-13T17:32:06.298Z,21.27
2019-01-13T17:34:35.941Z,21.25
2019-01-13T17:36:58.370Z,21.30
2019-01-13T17:39:24.370Z,21.31
2019-01-13T17:41:50.389Z,21.41
2019-01-13T17:44:16.608Z,21.42
2019-01-13T17:46:42.632Z,21.38
2019-01-13T17:49:08.643Z,21.40
2019-01-13T17:51:34.716Z,21.40
2019-01-13T17:54:00.753Z,21.39
2019-01-13T17:56:26.760Z,21.44
2019-01-13T17:58:52.835Z,21.44
2019-01-13T18:01:18.855Z,21.40
2019-01-13T18:03:44.879Z,21.44
2019-01-13T18:06:10.925Z,21.42
2019-01-13T18:08:36.932Z,21.42
2019-01-13T18:11:03.011Z,21.40
2019-01-13T18:13:32.417Z,21.41
2019-01-13T18:15:58.408Z,21.39
2019-01-13T18:18:24.445Z,21.39
2019-01-13T18:20:50.791Z,21.39
2019-01-13T18:23:16.782Z,21.38
2019-01-13T18:25:42.882Z,21.36
2019-01-13T18:28:09.038Z,21.35
2019-01-13T18:30:35.029Z,21.35
2019-01-13T18:33:01.033Z,21.33
2019-01-13T18:35:27.092Z,21.34
2019-01-13T18:37:53.161Z,21.34
2019-01-13T18:40:19.147Z,21.33
2019-01-13T18:42:45.197Z,21.34
2019-01-13T18:45:11.188Z,21.35
2019-01-13T18:47:37.186Z,21.33
2019-01-13T18:50:03.243Z,21.34
2019-01-13T18:52:29.283Z,21.35
2019-01-13T18:54:55.562Z,21.33
2019-01-13T18:57:21.583Z,21.34
2019-01-13T18:59:47.594Z,21.34
2019-01-13T19:02:13.599Z,21.34
2019-01-13T19:04:39.655Z,21.35
2019-01-13T19:07:05.648Z,21.36
2019-01-13T19:09:31.636Z,21.36
2019-01-13T19:11:57.742Z,21.37
2019-01-13T19:14:23.891Z,21.37
2019-01-13T19:16:49.885Z,21.37
2019-01-13T19:19:15.923Z,21.37
2019-01-13T19:21:41.959Z,21.37
2019-01-13T19:24:09.040Z,21.37
2019-01-13T19:26:35.078Z,21.38
2019-01-13T19:29:01.105Z,21.38
2019-01-13T19:31:27.118Z,21.41
2019-01-13T19:33:53.158Z,21.40
2019-01-13T19:36:19.161Z,21.40
2019-01-13T19:38:45.153Z,21.39
2019-01-13T19:41:11.193Z,21.40
2019-01-13T19:43:37.206Z,21.41
2019-01-13T19:46:03.221Z,21.43
2019-01-13T19:48:29.295Z,21.44
2019-01-13T19:50:55.376Z,21.43
2019-01-13T19:53:21.527Z,21.43
2019-01-13T19:55:47.603Z,21.43
2019-01-13T19:58:13.585Z,21.43
2019-01-13T20:00:39.575Z,21.43
2019-01-13T20:03:05.619Z,21.44
2019-01-13T20:05:31.621Z,21.45
2019-01-13T20:07:57.642Z,21.45
2019-01-13T20:10:23.709Z,21.46
2019-01-13T20:12:49.710Z,21.46
2019-01-13T20:15:15.718Z,21.46
2019-01-13T20:17:41.752Z,21.47
2019-01-13T20:20:07.753Z,21.46
2019-01-13T20:22:33.757Z,21.46
2019-01-13T20:25:02.025Z,21.45
2019-01-13T20:27:25.814Z,21.51
2019-01-13T20:29:51.817Z,21.52
2019-01-13T20:32:17.865Z,21.53
2019-01-13T20:34:43.858Z,21.51
2019-01-13T20:37:09.873Z,21.51
2019-01-13T20:39:35.907Z,21.50
2019-01-13T20:42:01.910Z,21.53
2019-01-13T20:44:27.914Z,21.50
2019-01-13T20:46:53.938Z,21.53
2019-01-13T20:49:19.924Z,21.50
2019-01-13T20:51:45.910Z,21.51
2019-01-13T20:54:11.961Z,21.52
2019-01-13T20:56:37.981Z,21.50
2019-01-13T20:59:03.982Z,21.49
2019-01-13T21:01:30.037Z,21.49
2019-01-13T21:03:56.316Z,21.51
2019-01-13T21:06:22.307Z,21.52
2019-01-13T21:08:48.355Z,21.53
2019-01-13T21:11:14.353Z,21.54
2019-01-13T21:13:40.347Z,21.51
2019-01-13T21:16:06.396Z,21.52
2019-01-13T21:18:32.412Z,21.52
2019-01-13T21:20:58.438Z,21.53
2019-01-13T21:23:24.504Z,21.53
2019-01-13T21:25:50.478Z,21.53
2019-01-13T21:28:16.468Z,21.53
2019-01-13T21:30:42.504Z,21.54
2019-01-13T21:33:08.503Z,21.51
2019-01-13T21:35:34.501Z,21.50
2019-01-13T21:38:00.549Z,21.49
2019-01-13T21:40:26.550Z,21.49
2019-01-13T21:42:52.552Z,21.50
2019-01-13T21:45:18.595Z,21.49
2019-01-13T21:47:44.602Z,21.49
2019-01-13T21:50:10.606Z,21.48
2019-01-13T21:52:36.648Z,21.49
2019-01-13T21:55:02.642Z,21.51
2019-01-13T21:57:28.646Z,21.51
2019-01-13T21:59:54.701Z,21.51
2019-01-13T22:02:20.773Z,21.53
2019-01-13T22:04:46.734Z,21.51
2019-01-13T22:07:14.864Z,21.48
2019-01-13T22:09:38.956Z,21.53
2019-01-13T22:12:04.942Z,21.51
2019-01-13T22:14:30.993Z,21.53
2019-01-13T22:16:56.980Z,21.49
2019-01-13T22:19:22.986Z,21.52
2019-01-13T22:21:49.052Z,21.49
2019-01-13T22:24:15.042Z,21.51
2019-01-13T22:26:41.031Z,21.52
2019-01-13T22:29:07.082Z,21.52
2019-01-13T22:31:33.080Z,21.50
2019-01-13T22:33:59.074Z,21.51
2019-01-13T22:36:25.125Z,21.53
2019-01-13T22:38:51.125Z,21.50
2019-01-13T22:41:17.111Z,21.52
2019-01-13T22:43:43.160Z,21.50
2019-01-13T22:46:09.160Z,21.51
2019-01-13T22:48:35.161Z,21.49
2019-01-13T22:51:06.157Z,21.52
2019-01-13T22:53:32.162Z,21.49
2019-01-13T22:55:58.153Z,21.48
2019-01-13T22:58:26.515Z,21.47
2019-01-13T23:00:52.512Z,21.46
2019-01-13T23:03:19.586Z,21.46
2019-01-13T23:05:45.948Z,21.46
2019-01-13T23:08:11.938Z,21.46
2019-01-13T23:10:37.942Z,21.46
2019-01-13T23:13:03.980Z,21.45
2019-01-13T23:15:29.986Z,21.45
2019-01-13T23:17:55.991Z,21.44
2019-01-13T23:20:22.037Z,21.44
2019-01-13T23:22:48.023Z,21.43
2019-01-13T23:25:14.026Z,21.43
2019-01-13T23:27:40.062Z,21.42
2019-01-13T23:30:06.056Z,21.44
2019-01-13T23:32:32.047Z,21.42
2019-01-13T23:34:58.080Z,21.41
2019-01-13T23:37:24.067Z,21.41
2019-01-13T23:39:50.055Z,21.40
2019-01-13T23:42:16.098Z,21.40
2019-01-13T23:44:42.082Z,21.40
2019-01-13T23:47:08.068Z,21.40
2019-01-13T23:49:34.119Z,21.40
2019-01-13T23:52:00.148Z,21.40
2019-01-13T23:54:26.151Z,21.38
2019-01-13T23:56:52.206Z,21.39
2019-01-13T23:59:18.197Z,21.37
